createdAt,value
2022-08-26T00:01:52.653Z,7.63
2022-08-26T00:04:22.277Z,7.22
2022-08-26T00:06:49.623Z,7.18
2022-08-26T00:09:17.093Z,7.28
2022-08-26T00:11:45.471Z,7.75
2022-08-26T00:14:14.019Z,7.72
2022-08-26T00:16:47.852Z,6.85
2022-08-26T00:19:20.822Z,7.85
2022-08-26T00:21:49.845Z,7.30
2022-08-26T00:24:19.670Z,7.68
2022-08-26T00:26:47.783Z,7.45
2022-08-26T00:29:15.845Z,8.27
2022-08-26T00:31:45.146Z,8.00
2022-08-26T00:34:14.250Z,7.20
2022-08-26T00:36:43.933Z,7.85
2022-08-26T00:39:11.427Z,8.10
2022-08-26T00:41:40.718Z,7.63
2022-08-26T00:44:11.531Z,8.23
2022-08-26T00:47:00.474Z,7.65
2022-08-26T00:49:38.610Z,8.02
2022-08-26T00:52:09.890Z,8.35
2022-08-26T00:54:46.756Z,8.07
2022-08-26T00:57:16.958Z,7.47
2022-08-26T00:59:50.411Z,8.23
2022-08-26T01:02:20.775Z,8.52
2022-08-26T01:04:56.502Z,8.55
2022-08-26T01:07:26.294Z,8.05
2022-08-26T01:09:56.033Z,8.20
2022-08-26T01:12:25.407Z,7.90
2022-08-26T01:14:52.951Z,8.27
2022-08-26T01:17:20.452Z,8.40
2022-08-26T01:19:51.281Z,7.88
2022-08-26T01:22:22.585Z,8.85
2022-08-26T01:24:57.958Z,8.70
2022-08-26T01:27:27.387Z,8.23
2022-08-26T01:30:00.750Z,8.55
2022-08-26T01:32:30.508Z,8.57
2022-08-26T01:34:59.521Z,8.48
2022-08-26T01:37:33.472Z,8.30
2022-08-26T01:40:00.977Z,8.65
2022-08-26T01:42:28.877Z,8.60
2022-08-26T01:45:00.076Z,8.30
2022-08-26T01:47:30.693Z,8.65
2022-08-26T01:50:00.318Z,9.32
2022-08-26T01:52:29.180Z,8.88
2022-08-26T01:54:57.885Z,9.32
2022-08-26T01:57:27.117Z,9.60
2022-08-26T01:59:57.611Z,9.85
2022-08-26T02:02:25.169Z,9.43
2022-08-26T02:04:59.606Z,8.75
2022-08-26T02:07:27.189Z,9.07
2022-08-26T02:09:55.218Z,9.10
2022-08-26T02:12:22.575Z,8.98
2022-08-26T02:14:53.795Z,10.02
2022-08-26T02:17:25.005Z,9.35
2022-08-26T02:19:52.543Z,9.35
2022-08-26T02:22:21.777Z,9.13
2022-08-26T02:24:51.286Z,10.55
2022-08-26T02:27:22.661Z,9.35
2022-08-26T02:30:14.224Z,9.77
2022-08-26T02:32:44.819Z,8.90
2022-08-26T02:35:19.999Z,9.38
2022-08-26T02:37:49.437Z,9.32
2022-08-26T02:40:22.053Z,9.38
2022-08-26T02:42:49.843Z,9.27
2022-08-26T02:45:23.235Z,8.80
2022-08-26T02:47:52.494Z,8.68
2022-08-26T02:50:20.722Z,9.20
2022-08-26T02:52:48.636Z,9.40
2022-08-26T02:55:16.326Z,10.10
2022-08-26T02:57:43.872Z,9.15
2022-08-26T03:00:14.743Z,9.18
2022-08-26T03:02:42.383Z,9.68
2022-08-26T03:05:11.400Z,8.90
2022-08-26T03:07:39.279Z,9.73
2022-08-26T03:10:08.453Z,8.68
2022-08-26T03:12:37.054Z,8.88
2022-08-26T03:15:17.518Z,9.13
2022-08-26T03:17:47.189Z,9.02
2022-08-26T03:20:15.789Z,9.48
2022-08-26T03:22:45.214Z,9.88
2022-08-26T03:25:14.529Z,9.57
2022-08-26T03:27:43.036Z,10.00
2022-08-26T03:30:31.049Z,9.25
2022-08-26T03:32:59.575Z,9.68
2022-08-26T03:35:26.749Z,9.63
2022-08-26T03:37:54.059Z,9.82
2022-08-26T03:40:22.365Z,9.82
2022-08-26T03:42:50.234Z,9.73
2022-08-26T03:45:18.886Z,9.25
2022-08-26T03:47:47.511Z,9.50
2022-08-26T03:50:22.605Z,9.35
2022-08-26T03:52:52.233Z,8.90
2022-08-26T03:55:23.693Z,8.65
2022-08-26T03:57:52.533Z,8.93
2022-08-26T04:00:20.901Z,9.20
2022-08-26T04:02:53.298Z,9.20
2022-08-26T04:05:22.892Z,10.57
2022-08-26T04:07:50.976Z,9.88
2022-08-26T04:10:20.207Z,10.10
2022-08-26T04:12:48.608Z,10.02
2022-08-26T04:15:17.847Z,9.77
2022-08-26T04:17:45.493Z,10.32
2022-08-26T04:20:16.241Z,9.88
2022-08-26T04:22:44.901Z,9.50
2022-08-26T04:25:13.168Z,9.68
2022-08-26T04:27:40.972Z,9.80
2022-08-26T04:30:09.666Z,10.55
2022-08-26T04:32:37.325Z,9.57
2022-08-26T04:35:05.350Z,9.68
2022-08-26T04:37:33.794Z,10.02
2022-08-26T04:40:01.245Z,9.63
2022-08-26T04:42:29.942Z,9.90
2022-08-26T04:44:57.245Z,8.85
2022-08-26T04:47:27.139Z,8.88
2022-08-26T04:49:58.177Z,8.63
2022-08-26T04:52:25.503Z,8.98
2022-08-26T04:54:55.485Z,9.32
2022-08-26T04:57:23.585Z,8.93
2022-08-26T04:59:50.811Z,8.63
2022-08-26T05:02:18.320Z,9.95
2022-08-26T05:04:46.894Z,8.60
2022-08-26T05:07:14.055Z,8.23
2022-08-26T05:09:45.490Z,8.52
2022-08-26T05:12:13.243Z,8.68
2022-08-26T05:14:41.454Z,8.10
2022-08-26T05:17:09.472Z,9.35
2022-08-26T05:19:42.960Z,8.35
2022-08-26T05:22:10.521Z,8.45
2022-08-26T05:24:41.273Z,7.88
2022-08-26T05:27:11.770Z,8.52
2022-08-26T05:29:40.926Z,8.65
2022-08-26T05:32:08.305Z,8.45
2022-08-26T05:34:39.038Z,8.75
2022-08-26T05:37:06.521Z,7.80
2022-08-26T05:39:34.614Z,7.53
2022-08-26T05:42:03.307Z,8.27
2022-08-26T05:44:53.560Z,9.25
2022-08-26T05:47:18.453Z,9.07
2022-08-26T05:49:51.363Z,8.70
2022-08-26T05:52:20.137Z,8.65
2022-08-26T05:54:47.668Z,8.40
2022-08-26T05:57:16.034Z,8.52
2022-08-26T05:59:46.005Z,8.63
2022-08-26T06:02:13.275Z,7.97
2022-08-26T06:04:41.139Z,8.13
2022-08-26T06:07:09.944Z,8.05
2022-08-26T06:09:39.546Z,7.95
2022-08-26T06:12:07.021Z,7.55
2022-08-26T06:14:36.128Z,7.45
2022-08-26T06:17:04.828Z,7.85
2022-08-26T06:19:33.056Z,7.70
2022-08-26T06:22:23.459Z,7.55
2022-08-26T06:25:10.537Z,7.60
2022-08-26T06:27:38.486Z,7.45
2022-08-26T06:30:07.018Z,7.10
2022-08-26T06:32:34.631Z,7.40
2022-08-26T06:35:02.801Z,7.32
2022-08-26T06:37:30.207Z,7.35
2022-08-26T06:39:57.907Z,7.10
2022-08-26T06:42:25.580Z,7.38
2022-08-26T06:44:54.054Z,7.30
2022-08-26T06:47:21.485Z,7.78
2022-08-26T06:49:50.363Z,7.63
2022-08-26T06:52:22.979Z,7.78
2022-08-26T06:54:52.078Z,7.43
2022-08-26T06:57:20.514Z,7.30
2022-08-26T06:59:51.092Z,7.72
2022-08-26T07:02:19.655Z,7.57
2022-08-26T07:04:48.177Z,6.97
2022-08-26T07:07:18.728Z,7.45
2022-08-26T07:09:52.393Z,7.55
2022-08-26T07:12:20.843Z,7.55
2022-08-26T07:14:48.661Z,7.07
2022-08-26T07:17:16.903Z,7.47
2022-08-26T07:19:47.008Z,7.13
2022-08-26T07:22:15.162Z,6.35
2022-08-26T07:24:43.953Z,6.72
2022-08-26T07:27:14.146Z,7.25
2022-08-26T07:29:43.788Z,7.57
2022-08-26T07:32:13.657Z,7.05
2022-08-26T07:34:42.037Z,7.32
2022-08-26T07:37:09.860Z,7.40
2022-08-26T07:39:37.914Z,6.75
2022-08-26T07:42:09.636Z,7.35
2022-08-26T07:44:37.678Z,6.57
2022-08-26T07:47:19.391Z,7.25
2022-08-26T07:49:55.697Z,6.88
2022-08-26T07:52:26.928Z,6.47
2022-08-26T07:54:58.928Z,6.35
2022-08-26T07:57:27.425Z,6.55
2022-08-26T07:59:55.539Z,6.90
2022-08-26T08:02:23.914Z,7.03
2022-08-26T08:04:52.346Z,6.47
2022-08-26T08:07:20.375Z,7.13
2022-08-26T08:09:51.478Z,7.43
2022-08-26T08:12:19.841Z,7.28
2022-08-26T08:14:48.487Z,6.70
2022-08-26T08:17:16.853Z,6.93
2022-08-26T08:19:44.627Z,6.70
2022-08-26T08:22:17.424Z,6.97
2022-08-26T08:24:49.680Z,6.10
2022-08-26T08:27:21.515Z,6.07
2022-08-26T08:29:54.938Z,6.45
2022-08-26T08:32:23.635Z,6.70
2022-08-26T08:34:51.684Z,6.80
2022-08-26T08:37:19.250Z,6.20
2022-08-26T08:39:46.675Z,6.03
2022-08-26T08:42:46.930Z,6.32
2022-08-26T08:45:22.930Z,9.18
2022-08-26T08:47:54.611Z,7.13
2022-08-26T08:50:26.564Z,6.70
2022-08-26T08:53:15.549Z,6.38
2022-08-26T08:56:18.269Z,6.88
2022-08-26T08:59:05.090Z,6.63
2022-08-26T09:01:52.563Z,6.30
2022-08-26T09:04:52.456Z,7.22
2022-08-26T09:07:27.611Z,6.78
2022-08-26T09:09:55.993Z,6.53
2022-08-26T09:12:29.390Z,6.45
2022-08-26T09:15:07.534Z,6.63
2022-08-26T09:17:41.045Z,6.60
2022-08-26T09:20:40.583Z,6.55
2022-08-26T09:23:10.605Z,5.65
2022-08-26T09:25:50.916Z,6.18
2022-08-26T09:28:20.875Z,6.18
2022-08-26T09:31:07.976Z,6.65
2022-08-26T09:33:38.191Z,5.85
2022-08-26T09:36:24.860Z,6.57
2022-08-26T09:38:54.093Z,5.85
2022-08-26T09:41:26.013Z,5.80
2022-08-26T09:44:14.529Z,6.70
2022-08-26T09:46:47.298Z,6.60
2022-08-26T09:49:36.581Z,6.10
2022-08-26T09:52:14.210Z,6.53
2022-08-26T09:54:44.411Z,5.53
2022-08-26T09:57:23.649Z,5.53
2022-08-26T09:59:51.433Z,5.28
2022-08-26T10:02:36.336Z,5.78
2022-08-26T10:05:09.574Z,6.32
2022-08-26T10:07:44.657Z,5.28
2022-08-26T10:10:30.561Z,5.93
2022-08-26T10:13:16.943Z,5.65
2022-08-26T10:15:53.043Z,5.68
2022-08-26T10:18:30.707Z,5.75
2022-08-26T10:21:39.985Z,6.15
2022-08-26T10:24:11.279Z,6.53
2022-08-26T10:27:05.930Z,6.10
2022-08-26T10:29:41.875Z,6.32
2022-08-26T10:32:15.130Z,6.07
2022-08-26T10:35:04.150Z,5.85
2022-08-26T10:37:40.303Z,6.57
2022-08-26T10:40:30.049Z,5.57
2022-08-26T10:43:27.160Z,6.03
2022-08-26T10:45:59.721Z,5.32
2022-08-26T10:48:54.336Z,5.22
2022-08-26T10:51:35.680Z,5.78
2022-08-26T10:54:29.671Z,5.40
2022-08-26T10:57:34.992Z,5.85
2022-08-26T11:00:38.661Z,6.38
2022-08-26T11:03:28.161Z,5.85
2022-08-26T11:06:20.307Z,5.38
2022-08-26T11:08:50.139Z,5.15
2022-08-26T11:11:42.430Z,6.13
2022-08-26T11:14:09.898Z,5.30
2022-08-26T11:16:52.234Z,5.18
2022-08-26T11:20:01.950Z,5.93
2022-08-26T11:22:33.704Z,5.22
2022-08-26T11:25:13.060Z,5.82
2022-08-26T11:27:41.687Z,5.80
2022-08-26T11:30:18.266Z,5.18
2022-08-26T11:32:48.673Z,5.20
2022-08-26T11:35:23.536Z,6.32
2022-08-26T11:37:59.720Z,5.63
2022-08-26T11:40:33.740Z,6.18
2022-08-26T11:43:07.872Z,6.22
2022-08-26T11:45:39.873Z,5.88
2022-08-26T11:48:35.879Z,5.65
2022-08-26T11:51:11.421Z,6.10
2022-08-26T11:53:44.702Z,6.13
2022-08-26T11:56:33.403Z,5.20
2022-08-26T11:59:03.190Z,5.97
2022-08-26T12:01:44.113Z,5.65
2022-08-26T12:04:18.297Z,5.85
2022-08-26T12:06:49.380Z,5.18
2022-08-26T12:09:33.078Z,6.33
2022-08-26T12:12:17.415Z,5.55
2022-08-26T12:14:45.202Z,5.82
2022-08-26T12:17:27.434Z,6.20
2022-08-26T12:19:54.855Z,6.20
2022-08-26T12:22:27.275Z,5.95
2022-08-26T12:25:03.720Z,5.53
2022-08-26T12:28:00.786Z,5.70
2022-08-26T12:30:28.327Z,5.90
2022-08-26T12:33:22.421Z,6.13
2022-08-26T12:35:56.584Z,6.22
2022-08-26T12:38:26.552Z,5.75
2022-08-26T12:40:54.855Z,6.30
2022-08-26T12:43:45.195Z,6.07
2022-08-26T12:46:17.563Z,5.25
2022-08-26T12:48:49.199Z,5.90
2022-08-26T12:51:28.498Z,6.03
2022-08-26T12:53:56.467Z,5.38
2022-08-26T12:56:32.721Z,5.93
2022-08-26T12:59:04.924Z,5.30
2022-08-26T13:01:44.499Z,5.13
2022-08-26T13:04:36.601Z,5.47
2022-08-26T13:07:24.585Z,5.63
2022-08-26T13:09:54.571Z,4.45
2022-08-26T13:12:26.362Z,4.32
2022-08-26T13:14:54.426Z,5.03
2022-08-26T13:17:22.312Z,4.75
2022-08-26T13:19:50.197Z,5.00
2022-08-26T13:22:23.235Z,5.43
2022-08-26T13:24:54.474Z,5.63
2022-08-26T13:27:24.332Z,5.68
2022-08-26T13:29:52.628Z,5.72
2022-08-26T13:32:20.756Z,4.85
2022-08-26T13:34:51.343Z,5.63
2022-08-26T13:37:22.322Z,5.88
2022-08-26T13:40:01.972Z,5.32
2022-08-26T13:42:29.987Z,5.30
2022-08-26T13:44:58.341Z,5.50
2022-08-26T13:47:27.731Z,6.50
2022-08-26T13:49:56.657Z,5.50
2022-08-26T13:52:30.065Z,5.22
2022-08-26T13:55:01.665Z,5.65
2022-08-26T13:57:30.618Z,6.18
2022-08-26T13:59:59.690Z,5.88
2022-08-26T14:02:28.331Z,5.90
2022-08-26T14:04:56.232Z,6.45
2022-08-26T14:07:23.945Z,6.70
2022-08-26T14:09:51.723Z,5.72
2022-08-26T14:12:19.795Z,6.03
2022-08-26T14:14:47.659Z,6.25
2022-08-26T14:17:19.269Z,6.32
2022-08-26T14:19:49.298Z,6.13
2022-08-26T14:22:19.096Z,6.57
2022-08-26T14:24:46.551Z,6.32
2022-08-26T14:27:14.398Z,7.32
2022-08-26T14:29:42.281Z,6.43
2022-08-26T14:32:21.387Z,6.05
2022-08-26T14:34:50.762Z,6.10
2022-08-26T14:37:19.397Z,6.35
2022-08-26T14:39:47.026Z,6.30
2022-08-26T14:42:15.996Z,6.25
2022-08-26T14:44:46.845Z,7.30
2022-08-26T14:47:14.267Z,6.43
2022-08-26T14:49:42.150Z,6.65
2022-08-26T14:52:09.719Z,6.47
2022-08-26T14:54:38.002Z,6.10
2022-08-26T14:57:08.261Z,6.65
2022-08-26T14:59:41.840Z,6.32
2022-08-26T15:02:18.188Z,6.57
2022-08-26T15:04:59.010Z,6.85
2022-08-26T15:07:26.709Z,7.25
2022-08-26T15:09:54.246Z,7.10
2022-08-26T15:12:22.138Z,6.63
2022-08-26T15:14:49.867Z,6.90
2022-08-26T15:17:17.638Z,6.70
2022-08-26T15:19:45.084Z,6.22
2022-08-26T15:22:12.721Z,7.15
2022-08-26T15:24:40.214Z,6.72
2022-08-26T15:27:08.625Z,7.45
2022-08-26T15:29:36.502Z,6.68
2022-08-26T15:32:05.036Z,6.50
2022-08-26T15:34:32.629Z,7.50
2022-08-26T15:37:00.408Z,7.10
2022-08-26T15:39:28.007Z,7.68
2022-08-26T15:41:56.999Z,7.80
2022-08-26T15:44:26.088Z,6.72
2022-08-26T15:46:58.860Z,7.68
2022-08-26T15:49:27.641Z,7.20
2022-08-26T15:51:55.230Z,7.13
2022-08-26T15:54:24.047Z,6.97
2022-08-26T15:56:53.445Z,7.38
2022-08-26T15:59:22.570Z,6.88
2022-08-26T16:01:50.658Z,6.90
2022-08-26T16:04:18.950Z,6.53
2022-08-26T16:06:48.026Z,7.05
2022-08-26T16:09:16.451Z,6.72
2022-08-26T16:11:50.025Z,7.05
2022-08-26T16:14:17.672Z,6.80
2022-08-26T16:16:45.719Z,7.05
2022-08-26T16:19:13.586Z,6.85
2022-08-26T16:21:41.665Z,7.22
2022-08-26T16:24:09.838Z,7.03
2022-08-26T16:26:38.712Z,7.60
2022-08-26T16:29:14.126Z,6.97
2022-08-26T16:31:42.537Z,6.50
2022-08-26T16:34:10.393Z,6.85
2022-08-26T16:36:39.066Z,7.70
2022-08-26T16:39:08.123Z,6.85
2022-08-26T16:41:36.330Z,7.22
2022-08-26T16:44:04.327Z,6.85
2022-08-26T16:46:34.173Z,7.05
2022-08-26T16:49:04.583Z,7.57
2022-08-26T16:51:32.662Z,7.03
2022-08-26T16:54:07.802Z,7.30
2022-08-26T16:56:35.594Z,7.57
2022-08-26T16:59:06.419Z,6.90
2022-08-26T17:01:34.311Z,7.45
2022-08-26T17:04:01.800Z,6.78
2022-08-26T17:06:29.835Z,7.40
2022-08-26T17:08:57.371Z,7.03
2022-08-26T17:11:24.756Z,7.80
2022-08-26T17:13:52.440Z,7.07
2022-08-26T17:16:23.326Z,7.22
2022-08-26T17:18:56.023Z,7.72
2022-08-26T17:21:24.118Z,7.68
2022-08-26T17:23:52.030Z,7.82
2022-08-26T17:26:20.179Z,8.10
2022-08-26T17:28:47.786Z,8.23
2022-08-26T17:31:15.289Z,8.27
2022-08-26T17:33:45.086Z,8.35
2022-08-26T17:36:15.087Z,8.15
2022-08-26T17:38:42.396Z,8.70
2022-08-26T17:41:13.844Z,8.35
2022-08-26T17:43:41.327Z,8.05
2022-08-26T17:46:10.932Z,8.50
2022-08-26T17:48:40.544Z,8.95
2022-08-26T17:51:12.962Z,8.93
2022-08-26T17:56:11.828Z,9.75
2022-08-26T17:58:41.596Z,8.90
2022-08-26T18:01:20.767Z,9.38
2022-08-26T18:03:48.936Z,8.63
2022-08-26T18:06:16.390Z,8.20
2022-08-26T18:08:45.147Z,8.80
2022-08-26T18:11:16.893Z,9.35
2022-08-26T18:13:47.053Z,9.30
2022-08-26T18:16:15.942Z,9.15
2022-08-26T18:18:43.735Z,8.40
2022-08-26T18:21:16.135Z,9.57
2022-08-26T18:23:45.026Z,9.82
2022-08-26T18:26:17.530Z,10.40
2022-08-26T18:28:45.162Z,9.23
2022-08-26T18:31:12.629Z,8.85
2022-08-26T18:33:40.821Z,9.98
2022-08-26T18:36:08.132Z,10.02
2022-08-26T18:38:35.391Z,9.05
2022-08-26T18:41:04.466Z,9.75
2022-08-26T18:43:31.956Z,10.25
2022-08-26T18:46:04.901Z,9.65
2022-08-26T18:51:00.317Z,9.55
2022-08-26T18:53:28.734Z,9.55
2022-08-26T18:55:56.888Z,8.90
2022-08-26T18:58:24.272Z,9.30
2022-08-26T19:00:52.514Z,8.77
2022-08-26T19:03:20.147Z,10.00
2022-08-26T19:05:47.599Z,10.02
2022-08-26T19:08:15.113Z,9.35
2022-08-26T19:10:42.716Z,9.25
2022-08-26T19:13:10.450Z,9.30
2022-08-26T19:15:42.748Z,9.65
2022-08-26T19:18:11.595Z,9.68
2022-08-26T19:20:45.963Z,9.32
2022-08-26T19:23:30.873Z,10.10
2022-08-26T19:25:59.469Z,10.63
2022-08-26T19:28:27.221Z,10.63
2022-08-26T19:30:54.562Z,10.82
2022-08-26T19:33:22.281Z,10.70
2022-08-26T19:35:49.990Z,11.13
2022-08-26T19:38:17.730Z,11.52
2022-08-26T19:40:45.194Z,12.15
2022-08-26T19:43:12.886Z,12.20
2022-08-26T19:45:42.190Z,12.75
2022-08-26T19:48:11.526Z,12.75
2022-08-26T19:50:39.283Z,12.60
2022-08-26T19:53:06.713Z,14.43
2022-08-26T19:55:34.688Z,15.02
2022-08-26T19:58:02.490Z,15.43
2022-08-26T20:00:32.059Z,15.18
2022-08-26T20:03:00.052Z,15.48
2022-08-26T20:05:27.960Z,14.85
2022-08-26T20:07:55.581Z,15.00
2022-08-26T20:10:23.983Z,15.98
2022-08-26T20:12:52.754Z,15.45
2022-08-26T20:15:24.269Z,15.35
2022-08-26T20:17:52.553Z,15.48
2022-08-26T20:20:38.781Z,17.27
2022-08-26T20:23:06.296Z,17.30
2022-08-26T20:25:34.356Z,17.50
2022-08-26T20:28:02.458Z,16.85
2022-08-26T20:30:30.132Z,18.10
2022-08-26T20:32:57.817Z,17.77
2022-08-26T20:35:25.381Z,16.27
2022-08-26T20:37:53.042Z,15.85
2022-08-26T20:40:21.578Z,15.35
2022-08-26T20:42:49.357Z,14.88
2022-08-26T20:45:17.282Z,14.60
2022-08-26T20:47:45.198Z,14.23
2022-08-26T20:50:12.554Z,14.88
2022-08-26T20:52:40.436Z,13.75
2022-08-26T20:55:09.248Z,12.50
2022-08-26T20:57:37.643Z,11.88
2022-08-26T21:00:07.273Z,12.23
2022-08-26T21:02:35.465Z,11.75
2022-08-26T21:05:03.118Z,12.00
2022-08-26T21:07:31.091Z,10.95
2022-08-26T21:09:59.596Z,12.35
2022-08-26T21:12:27.494Z,11.65
2022-08-26T21:14:55.289Z,13.48
2022-08-26T21:17:23.698Z,12.00
2022-08-26T21:19:51.861Z,12.43
2022-08-26T21:22:20.522Z,12.27
2022-08-26T21:24:49.077Z,12.68
2022-08-26T21:27:17.615Z,12.77
2022-08-26T21:29:52.010Z,13.30
2022-08-26T21:32:20.208Z,13.32
2022-08-26T21:34:48.096Z,12.23
2022-08-26T21:37:16.701Z,13.85
2022-08-26T21:39:45.097Z,13.27
2022-08-26T21:42:13.107Z,13.43
2022-08-26T21:44:40.941Z,13.15
2022-08-26T21:47:08.791Z,13.32
2022-08-26T21:49:36.827Z,13.45
2022-08-26T21:52:05.479Z,13.48
2022-08-26T21:54:33.841Z,13.65
2022-08-26T21:57:01.607Z,14.23
2022-08-26T21:59:30.118Z,13.95
2022-08-26T22:01:59.061Z,13.40
2022-08-26T22:04:26.804Z,13.70
2022-08-26T22:06:57.737Z,13.25
2022-08-26T22:09:27.418Z,13.48
2022-08-26T22:11:57.018Z,14.25
2022-08-26T22:14:30.947Z,14.35
2022-08-26T22:16:59.524Z,13.60
2022-08-26T22:19:27.566Z,14.40
2022-08-26T22:21:56.072Z,14.57
2022-08-26T22:24:25.984Z,13.68
2022-08-26T22:26:54.976Z,13.65
2022-08-26T22:29:24.571Z,14.20
2022-08-26T22:31:53.107Z,14.00
2022-08-26T22:34:23.153Z,15.20
2022-08-26T22:36:51.378Z,14.48
2022-08-26T22:39:22.270Z,14.60
2022-08-26T22:41:52.166Z,13.82
2022-08-26T22:44:22.330Z,15.63
2022-08-26T22:46:51.876Z,14.98
2022-08-26T22:49:20.011Z,14.65
2022-08-26T22:51:47.725Z,15.30
2022-08-26T22:54:16.663Z,15.10
2022-08-26T22:56:45.161Z,14.40
2022-08-26T22:59:13.150Z,14.45
2022-08-26T23:01:42.944Z,15.30
2022-08-26T23:04:11.677Z,15.00
2022-08-26T23:06:41.007Z,14.40
2022-08-26T23:09:09.216Z,14.45
2022-08-26T23:11:38.205Z,14.90
2022-08-26T23:14:09.547Z,15.30
2022-08-26T23:16:39.513Z,14.63
2022-08-26T23:19:09.840Z,14.88
2022-08-26T23:21:38.047Z,14.50
2022-08-26T23:24:06.742Z,13.63
2022-08-26T23:26:34.823Z,14.57
2022-08-26T23:29:02.815Z,14.25
2022-08-26T23:31:30.578Z,15.18
2022-08-26T23:34:17.230Z,15.20
2022-08-26T23:36:45.723Z,14.98
2022-08-26T23:39:15.540Z,16.02
2022-08-26T23:41:43.370Z,15.35
2022-08-26T23:44:12.559Z,14.88
2022-08-26T23:46:40.450Z,15.52
2022-08-26T23:49:07.979Z,15.80
2022-08-26T23:51:54.275Z,15.30
2022-08-26T23:54:22.077Z,15.60
2022-08-26T23:56:49.773Z,15.73
2022-08-26T23:59:17.637Z,15.70
